sensor_id;sensor_type;location;lat;lon;timestamp;P1;durP1;ratioP1;P2;durP2;ratioP2
57744;SDS011;58941;50.168;4.410;2023-05-07T00:01:00;1.67;;;1.13;;
57744;SDS011;58941;50.168;4.410;2023-05-07T00:03:26;1.67;;;1.10;;
57744;SDS011;58941;50.168;4.410;2023-05-07T00:05:52;1.40;;;1.15;;
57744;SDS011;58941;50.168;4.410;2023-05-07T00:08:18;2.58;;;1.20;;
57744;SDS011;58941;50.168;4.410;2023-05-07T00:10:44;2.38;;;1.10;;
57744;SDS011;58941;50.168;4.410;2023-05-07T00:13:10;2.45;;;1.10;;
57744;SDS011;58941;50.168;4.410;2023-05-07T00:15:35;1.70;;;1.10;;
57744;SDS011;58941;50.168;4.410;2023-05-07T00:18:00;1.13;;;1.00;;
57744;SDS011;58941;50.168;4.410;2023-05-07T00:20:26;1.60;;;1.20;;
57744;SDS011;58941;50.168;4.410;2023-05-07T00:22:51;1.60;;;1.00;;
57744;SDS011;58941;50.168;4.410;2023-05-07T00:25:17;1.42;;;0.80;;
57744;SDS011;58941;50.168;4.410;2023-05-07T00:27:44;0.95;;;0.93;;
57744;SDS011;58941;50.168;4.410;2023-05-07T00:30:10;1.42;;;0.90;;
57744;SDS011;58941;50.168;4.410;2023-05-07T00:32:35;0.93;;;0.90;;
57744;SDS011;58941;50.168;4.410;2023-05-07T00:35:02;1.10;;;1.00;;
57744;SDS011;58941;50.168;4.410;2023-05-07T00:37:27;1.77;;;1.00;;
57744;SDS011;58941;50.168;4.410;2023-05-07T00:39:53;1.08;;;0.90;;
57744;SDS011;58941;50.168;4.410;2023-05-07T00:42:18;0.93;;;0.80;;
57744;SDS011;58941;50.168;4.410;2023-05-07T00:44:44;1.75;;;1.10;;
57744;SDS011;58941;50.168;4.410;2023-05-07T00:47:09;1.08;;;0.80;;
57744;SDS011;58941;50.168;4.410;2023-05-07T00:49:37;0.80;;;0.80;;
57744;SDS011;58941;50.168;4.410;2023-05-07T00:52:03;1.20;;;0.90;;
57744;SDS011;58941;50.168;4.410;2023-05-07T00:54:29;0.85;;;0.85;;
57744;SDS011;58941;50.168;4.410;2023-05-07T00:56:55;0.82;;;0.82;;
57744;SDS011;58941;50.168;4.410;2023-05-07T00:59:21;1.45;;;1.00;;
57744;SDS011;58941;50.168;4.410;2023-05-07T01:01:46;1.90;;;0.90;;
57744;SDS011;58941;50.168;4.410;2023-05-07T01:04:12;0.90;;;0.90;;
57744;SDS011;58941;50.168;4.410;2023-05-07T01:06:37;3.00;;;1.00;;
57744;SDS011;58941;50.168;4.410;2023-05-07T01:09:03;0.93;;;0.93;;
57744;SDS011;58941;50.168;4.410;2023-05-07T01:11:30;1.45;;;0.88;;
57744;SDS011;58941;50.168;4.410;2023-05-07T01:13:55;1.08;;;0.90;;
57744;SDS011;58941;50.168;4.410;2023-05-07T01:16:21;2.17;;;0.98;;
57744;SDS011;58941;50.168;4.410;2023-05-07T01:18:47;0.80;;;0.80;;
57744;SDS011;58941;50.168;4.410;2023-05-07T01:21:13;0.80;;;0.80;;
57744;SDS011;58941;50.168;4.410;2023-05-07T01:23:40;1.63;;;0.90;;
57744;SDS011;58941;50.168;4.410;2023-05-07T01:26:06;1.30;;;0.90;;
57744;SDS011;58941;50.168;4.410;2023-05-07T01:28:32;1.58;;;0.85;;
57744;SDS011;58941;50.168;4.410;2023-05-07T01:31:01;1.05;;;0.80;;
57744;SDS011;58941;50.168;4.410;2023-05-07T01:33:29;1.20;;;1.00;;
57744;SDS011;58941;50.168;4.410;2023-05-07T01:35:56;1.25;;;0.80;;
57744;SDS011;58941;50.168;4.410;2023-05-07T01:38:23;1.00;;;0.90;;
57744;SDS011;58941;50.168;4.410;2023-05-07T01:40:49;0.90;;;0.90;;
57744;SDS011;58941;50.168;4.410;2023-05-07T01:43:15;1.33;;;1.05;;
57744;SDS011;58941;50.168;4.410;2023-05-07T01:45:41;1.00;;;0.90;;
57744;SDS011;58941;50.168;4.410;2023-05-07T01:48:07;1.42;;;0.90;;
57744;SDS011;58941;50.168;4.410;2023-05-07T01:50:33;1.23;;;1.02;;
57744;SDS011;58941;50.168;4.410;2023-05-07T01:52:59;1.40;;;1.10;;
57744;SDS011;58941;50.168;4.410;2023-05-07T01:55:26;2.33;;;1.15;;
57744;SDS011;58941;50.168;4.410;2023-05-07T01:57:51;1.15;;;0.82;;
57744;SDS011;58941;50.168;4.410;2023-05-07T02:00:17;1.02;;;0.93;;
57744;SDS011;58941;50.168;4.410;2023-05-07T02:02:42;1.30;;;0.98;;
57744;SDS011;58941;50.168;4.410;2023-05-07T02:05:08;0.90;;;0.80;;
57744;SDS011;58941;50.168;4.410;2023-05-07T02:07:33;0.93;;;0.90;;
57744;SDS011;58941;50.168;4.410;2023-05-07T02:09:59;0.90;;;0.90;;
57744;SDS011;58941;50.168;4.410;2023-05-07T02:12:24;1.65;;;1.10;;
57744;SDS011;58941;50.168;4.410;2023-05-07T02:14:50;1.35;;;1.00;;
57744;SDS011;58941;50.168;4.410;2023-05-07T02:17:16;1.20;;;0.90;;
57744;SDS011;58941;50.168;4.410;2023-05-07T02:19:41;1.17;;;0.80;;
57744;SDS011;58941;50.168;4.410;2023-05-07T02:22:07;0.70;;;0.70;;
57744;SDS011;58941;50.168;4.410;2023-05-07T02:24:32;1.00;;;0.90;;
57744;SDS011;58941;50.168;4.410;2023-05-07T02:26:58;1.50;;;1.15;;
57744;SDS011;58941;50.168;4.410;2023-05-07T02:29:23;1.63;;;0.98;;
57744;SDS011;58941;50.168;4.410;2023-05-07T02:31:49;2.38;;;1.10;;
57744;SDS011;58941;50.168;4.410;2023-05-07T02:34:18;0.95;;;0.90;;
57744;SDS011;58941;50.168;4.410;2023-05-07T02:36:44;0.88;;;0.82;;
57744;SDS011;58941;50.168;4.410;2023-05-07T02:39:10;0.90;;;0.90;;
57744;SDS011;58941;50.168;4.410;2023-05-07T02:41:36;1.33;;;0.80;;
57744;SDS011;58941;50.168;4.410;2023-05-07T02:44:01;2.67;;;1.08;;
57744;SDS011;58941;50.168;4.410;2023-05-07T02:46:27;2.35;;;1.02;;
57744;SDS011;58941;50.168;4.410;2023-05-07T02:48:52;1.30;;;0.77;;
57744;SDS011;58941;50.168;4.410;2023-05-07T02:51:19;1.45;;;0.85;;
57744;SDS011;58941;50.168;4.410;2023-05-07T02:53:45;1.48;;;1.00;;
57744;SDS011;58941;50.168;4.410;2023-05-07T02:56:11;0.93;;;0.85;;
57744;SDS011;58941;50.168;4.410;2023-05-07T02:58:36;0.82;;;0.82;;
57744;SDS011;58941;50.168;4.410;2023-05-07T03:01:02;1.30;;;0.88;;
57744;SDS011;58941;50.168;4.410;2023-05-07T03:03:27;0.85;;;0.77;;
57744;SDS011;58941;50.168;4.410;2023-05-07T03:05:53;0.90;;;0.80;;
57744;SDS011;58941;50.168;4.410;2023-05-07T03:08:18;1.55;;;0.88;;
57744;SDS011;58941;50.168;4.410;2023-05-07T03:10:44;0.95;;;0.90;;
57744;SDS011;58941;50.168;4.410;2023-05-07T03:13:09;2.22;;;0.80;;
57744;SDS011;58941;50.168;4.410;2023-05-07T03:15:35;0.82;;;0.82;;
57744;SDS011;58941;50.168;4.410;2023-05-07T03:18:00;1.08;;;0.98;;
57744;SDS011;58941;50.168;4.410;2023-05-07T03:20:26;0.90;;;0.82;;
57744;SDS011;58941;50.168;4.410;2023-05-07T03:22:51;1.73;;;1.00;;
57744;SDS011;58941;50.168;4.410;2023-05-07T03:25:17;1.92;;;0.90;;
57744;SDS011;58941;50.168;4.410;2023-05-07T03:27:42;0.90;;;0.90;;
57744;SDS011;58941;50.168;4.410;2023-05-07T03:30:08;0.95;;;0.75;;
57744;SDS011;58941;50.168;4.410;2023-05-07T03:32:34;1.00;;;0.90;;
57744;SDS011;58941;50.168;4.410;2023-05-07T03:35:00;1.42;;;1.15;;
57744;SDS011;58941;50.168;4.410;2023-05-07T03:37:26;1.00;;;0.90;;
57744;SDS011;58941;50.168;4.410;2023-05-07T03:39:51;1.10;;;1.00;;
57744;SDS011;58941;50.168;4.410;2023-05-07T03:42:17;1.83;;;1.30;;
57744;SDS011;58941;50.168;4.410;2023-05-07T03:44:42;1.15;;;1.00;;
57744;SDS011;58941;50.168;4.410;2023-05-07T03:47:08;1.17;;;1.00;;
57744;SDS011;58941;50.168;4.410;2023-05-07T03:49:35;1.38;;;1.25;;
57744;SDS011;58941;50.168;4.410;2023-05-07T03:52:00;1.10;;;1.00;;
57744;SDS011;58941;50.168;4.410;2023-05-07T03:54:26;2.25;;;1.13;;
57744;SDS011;58941;50.168;4.410;2023-05-07T03:56:51;2.03;;;1.30;;
57744;SDS011;58941;50.168;4.410;2023-05-07T03:59:17;1.88;;;1.10;;
57744;SDS011;58941;50.168;4.410;2023-05-07T04:01:42;2.00;;;1.23;;
57744;SDS011;58941;50.168;4.410;2023-05-07T04:04:08;1.23;;;1.10;;
57744;SDS011;58941;50.168;4.410;2023-05-07T04:06:33;1.58;;;1.30;;
57744;SDS011;58941;50.168;4.410;2023-05-07T04:08:59;1.35;;;1.17;;
57744;SDS011;58941;50.168;4.410;2023-05-07T04:11:24;2.47;;;1.30;;
57744;SDS011;58941;50.168;4.410;2023-05-07T04:13:50;2.05;;;1.30;;
57744;SDS011;58941;50.168;4.410;2023-05-07T04:16:15;1.10;;;1.00;;
57744;SDS011;58941;50.168;4.410;2023-05-07T04:18:41;1.30;;;1.20;;
57744;SDS011;58941;50.168;4.410;2023-05-07T04:21:13;2.03;;;1.27;;
57744;SDS011;58941;50.168;4.410;2023-05-07T04:23:39;1.42;;;1.10;;
57744;SDS011;58941;50.168;4.410;2023-05-07T04:26:04;1.40;;;1.20;;
57744;SDS011;58941;50.168;4.410;2023-05-07T04:28:30;1.15;;;1.05;;
57744;SDS011;58941;50.168;4.410;2023-05-07T04:30:55;1.55;;;1.33;;
57744;SDS011;58941;50.168;4.410;2023-05-07T04:33:21;1.75;;;1.10;;
57744;SDS011;58941;50.168;4.410;2023-05-07T04:35:46;1.83;;;1.35;;
57744;SDS011;58941;50.168;4.410;2023-05-07T04:38:12;1.67;;;1.55;;
57744;SDS011;58941;50.168;4.410;2023-05-07T04:40:38;2.13;;;1.42;;
57744;SDS011;58941;50.168;4.410;2023-05-07T04:43:04;1.90;;;1.20;;
57744;SDS011;58941;50.168;4.410;2023-05-07T04:45:29;2.20;;;1.30;;
57744;SDS011;58941;50.168;4.410;2023-05-07T04:47:55;1.30;;;1.20;;
57744;SDS011;58941;50.168;4.410;2023-05-07T04:50:20;1.73;;;1.63;;
57744;SDS011;58941;50.168;4.410;2023-05-07T04:52:49;3.00;;;1.42;;
57744;SDS011;58941;50.168;4.410;2023-05-07T04:55:14;2.45;;;1.27;;
57744;SDS011;58941;50.168;4.410;2023-05-07T04:57:40;1.95;;;1.48;;
57744;SDS011;58941;50.168;4.410;2023-05-07T05:00:06;1.98;;;1.20;;
57744;SDS011;58941;50.168;4.410;2023-05-07T05:02:34;1.85;;;1.50;;
57744;SDS011;58941;50.168;4.410;2023-05-07T05:05:00;1.80;;;1.48;;
57744;SDS011;58941;50.168;4.410;2023-05-07T05:07:26;1.55;;;1.30;;
57744;SDS011;58941;50.168;4.410;2023-05-07T05:09:52;2.95;;;1.55;;
57744;SDS011;58941;50.168;4.410;2023-05-07T05:12:17;1.58;;;1.40;;
57744;SDS011;58941;50.168;4.410;2023-05-07T05:14:43;2.10;;;1.40;;
57744;SDS011;58941;50.168;4.410;2023-05-07T05:17:08;1.80;;;1.45;;
57744;SDS011;58941;50.168;4.410;2023-05-07T05:19:33;2.42;;;1.40;;
57744;SDS011;58941;50.168;4.410;2023-05-07T05:21:59;1.60;;;1.48;;
57744;SDS011;58941;50.168;4.410;2023-05-07T05:24:44;2.00;;;1.48;;
57744;SDS011;58941;50.168;4.410;2023-05-07T05:27:10;2.38;;;1.40;;
57744;SDS011;58941;50.168;4.410;2023-05-07T05:29:35;2.40;;;1.50;;
57744;SDS011;58941;50.168;4.410;2023-05-07T05:32:01;3.75;;;1.55;;
57744;SDS011;58941;50.168;4.410;2023-05-07T05:34:26;2.20;;;1.60;;
57744;SDS011;58941;50.168;4.410;2023-05-07T05:36:52;2.45;;;1.50;;
57744;SDS011;58941;50.168;4.410;2023-05-07T05:39:18;2.05;;;1.50;;
57744;SDS011;58941;50.168;4.410;2023-05-07T05:41:43;2.05;;;1.40;;
57744;SDS011;58941;50.168;4.410;2023-05-07T05:44:09;2.38;;;1.50;;
57744;SDS011;58941;50.168;4.410;2023-05-07T05:46:34;1.50;;;1.40;;
57744;SDS011;58941;50.168;4.410;2023-05-07T05:49:00;2.95;;;1.77;;
57744;SDS011;58941;50.168;4.410;2023-05-07T05:51:25;1.92;;;1.40;;
57744;SDS011;58941;50.168;4.410;2023-05-07T05:53:51;1.30;;;1.20;;
57744;SDS011;58941;50.168;4.410;2023-05-07T05:56:17;1.63;;;1.50;;
57744;SDS011;58941;50.168;4.410;2023-05-07T05:58:42;1.65;;;1.55;;
57744;SDS011;58941;50.168;4.410;2023-05-07T06:01:08;2.33;;;1.45;;
57744;SDS011;58941;50.168;4.410;2023-05-07T06:03:33;2.08;;;1.40;;
57744;SDS011;58941;50.168;4.410;2023-05-07T06:05:59;1.35;;;1.25;;
57744;SDS011;58941;50.168;4.410;2023-05-07T06:08:25;1.75;;;1.27;;
57744;SDS011;58941;50.168;4.410;2023-05-07T06:10:51;2.00;;;1.73;;
57744;SDS011;58941;50.168;4.410;2023-05-07T06:13:17;1.65;;;1.55;;
57744;SDS011;58941;50.168;4.410;2023-05-07T06:15:42;1.85;;;1.55;;
57744;SDS011;58941;50.168;4.410;2023-05-07T06:18:07;1.55;;;1.30;;
57744;SDS011;58941;50.168;4.410;2023-05-07T06:20:33;1.25;;;1.15;;
57744;SDS011;58941;50.168;4.410;2023-05-07T06:22:58;1.58;;;1.48;;
57744;SDS011;58941;50.168;4.410;2023-05-07T06:25:24;1.45;;;1.35;;
57744;SDS011;58941;50.168;4.410;2023-05-07T06:27:49;1.45;;;1.30;;
57744;SDS011;58941;50.168;4.410;2023-05-07T06:30:15;1.42;;;1.33;;
57744;SDS011;58941;50.168;4.410;2023-05-07T06:32:40;1.73;;;1.40;;
57744;SDS011;58941;50.168;4.410;2023-05-07T06:35:06;1.33;;;1.23;;
57744;SDS011;58941;50.168;4.410;2023-05-07T06:37:31;1.40;;;1.30;;
57744;SDS011;58941;50.168;4.410;2023-05-07T06:39:57;1.20;;;1.10;;
57744;SDS011;58941;50.168;4.410;2023-05-07T06:42:22;1.65;;;1.45;;
57744;SDS011;58941;50.168;4.410;2023-05-07T06:44:48;2.30;;;1.48;;
57744;SDS011;58941;50.168;4.410;2023-05-07T06:47:13;1.48;;;1.38;;
57744;SDS011;58941;50.168;4.410;2023-05-07T06:49:39;2.20;;;1.50;;
57744;SDS011;58941;50.168;4.410;2023-05-07T06:52:04;2.33;;;1.40;;
57744;SDS011;58941;50.168;4.410;2023-05-07T06:54:30;1.98;;;1.40;;
57744;SDS011;58941;50.168;4.410;2023-05-07T06:56:55;1.58;;;1.48;;
57744;SDS011;58941;50.168;4.410;2023-05-07T06:59:21;1.83;;;1.35;;
57744;SDS011;58941;50.168;4.410;2023-05-07T07:01:46;1.50;;;1.40;;
57744;SDS011;58941;50.168;4.410;2023-05-07T07:04:11;1.50;;;1.40;;
57744;SDS011;58941;50.168;4.410;2023-05-07T07:06:37;2.08;;;1.42;;
57744;SDS011;58941;50.168;4.410;2023-05-07T07:09:03;1.40;;;1.30;;
57744;SDS011;58941;50.168;4.410;2023-05-07T07:11:28;1.80;;;1.23;;
57744;SDS011;58941;50.168;4.410;2023-05-07T07:13:54;1.15;;;1.05;;
57744;SDS011;58941;50.168;4.410;2023-05-07T07:16:20;1.85;;;1.23;;
57744;SDS011;58941;50.168;4.410;2023-05-07T07:18:45;1.60;;;1.10;;
57744;SDS011;58941;50.168;4.410;2023-05-07T07:21:11;2.72;;;1.40;;
57744;SDS011;58941;50.168;4.410;2023-05-07T07:23:36;1.80;;;1.20;;
57744;SDS011;58941;50.168;4.410;2023-05-07T07:26:02;1.70;;;1.30;;
57744;SDS011;58941;50.168;4.410;2023-05-07T07:28:27;1.42;;;1.33;;
57744;SDS011;58941;50.168;4.410;2023-05-07T07:30:53;1.17;;;1.08;;
57744;SDS011;58941;50.168;4.410;2023-05-07T07:33:18;1.30;;;1.20;;
57744;SDS011;58941;50.168;4.410;2023-05-07T07:35:44;2.65;;;1.10;;
57744;SDS011;58941;50.168;4.410;2023-05-07T07:38:09;1.83;;;1.13;;
57744;SDS011;58941;50.168;4.410;2023-05-07T07:40:35;1.63;;;1.30;;
57744;SDS011;58941;50.168;4.410;2023-05-07T07:43:00;1.63;;;1.00;;
57744;SDS011;58941;50.168;4.410;2023-05-07T07:45:26;1.55;;;1.08;;
57744;SDS011;58941;50.168;4.410;2023-05-07T07:47:52;1.17;;;1.08;;
57744;SDS011;58941;50.168;4.410;2023-05-07T07:50:17;1.20;;;1.10;;
57744;SDS011;58941;50.168;4.410;2023-05-07T07:52:43;1.35;;;1.20;;
57744;SDS011;58941;50.168;4.410;2023-05-07T07:55:09;1.20;;;1.08;;
57744;SDS011;58941;50.168;4.410;2023-05-07T07:57:34;1.42;;;1.10;;
57744;SDS011;58941;50.168;4.410;2023-05-07T08:00:00;1.40;;;1.30;;
57744;SDS011;58941;50.168;4.410;2023-05-07T08:02:26;1.60;;;1.20;;
57744;SDS011;58941;50.168;4.410;2023-05-07T08:04:51;1.55;;;1.20;;
57744;SDS011;58941;50.168;4.410;2023-05-07T08:07:16;1.35;;;1.20;;
57744;SDS011;58941;50.168;4.410;2023-05-07T08:09:46;1.38;;;1.10;;
57744;SDS011;58941;50.168;4.410;2023-05-07T08:12:12;1.10;;;1.00;;
57744;SDS011;58941;50.168;4.410;2023-05-07T08:14:37;0.98;;;0.95;;
57744;SDS011;58941;50.168;4.410;2023-05-07T08:17:03;1.17;;;0.88;;
57744;SDS011;58941;50.168;4.410;2023-05-07T08:19:28;0.90;;;0.77;;
57744;SDS011;58941;50.168;4.410;2023-05-07T08:21:54;1.35;;;0.90;;
57744;SDS011;58941;50.168;4.410;2023-05-07T08:24:20;1.10;;;1.00;;
57744;SDS011;58941;50.168;4.410;2023-05-07T08:26:46;1.10;;;0.90;;
57744;SDS011;58941;50.168;4.410;2023-05-07T08:29:12;1.92;;;1.00;;
57744;SDS011;58941;50.168;4.410;2023-05-07T08:31:37;2.25;;;0.90;;
57744;SDS011;58941;50.168;4.410;2023-05-07T08:34:06;0.80;;;0.80;;
57744;SDS011;58941;50.168;4.410;2023-05-07T08:36:32;2.08;;;1.00;;
57744;SDS011;58941;50.168;4.410;2023-05-07T08:38:57;1.05;;;0.98;;
57744;SDS011;58941;50.168;4.410;2023-05-07T08:41:23;0.90;;;0.88;;
57744;SDS011;58941;50.168;4.410;2023-05-07T08:43:49;1.20;;;1.10;;
57744;SDS011;58941;50.168;4.410;2023-05-07T08:46:17;1.05;;;0.98;;
57744;SDS011;58941;50.168;4.410;2023-05-07T08:48:42;0.93;;;0.80;;
57744;SDS011;58941;50.168;4.410;2023-05-07T08:51:08;1.25;;;0.95;;
57744;SDS011;58941;50.168;4.410;2023-05-07T08:53:34;1.20;;;1.10;;
57744;SDS011;58941;50.168;4.410;2023-05-07T08:56:00;1.20;;;1.10;;
57744;SDS011;58941;50.168;4.410;2023-05-07T08:58:26;1.00;;;0.90;;
57744;SDS011;58941;50.168;4.410;2023-05-07T09:00:51;1.42;;;0.90;;
57744;SDS011;58941;50.168;4.410;2023-05-07T09:03:18;0.80;;;0.75;;
57744;SDS011;58941;50.168;4.410;2023-05-07T09:05:43;1.13;;;1.10;;
57744;SDS011;58941;50.168;4.410;2023-05-07T09:08:09;0.93;;;0.90;;
57744;SDS011;58941;50.168;4.410;2023-05-07T09:10:34;1.48;;;1.10;;
57744;SDS011;58941;50.168;4.410;2023-05-07T09:13:00;1.42;;;1.00;;
57744;SDS011;58941;50.168;4.410;2023-05-07T09:15:26;2.28;;;1.10;;
57744;SDS011;58941;50.168;4.410;2023-05-07T09:17:52;1.10;;;0.98;;
57744;SDS011;58941;50.168;4.410;2023-05-07T09:20:17;2.10;;;1.15;;
57744;SDS011;58941;50.168;4.410;2023-05-07T09:22:43;1.00;;;0.90;;
57744;SDS011;58941;50.168;4.410;2023-05-07T09:25:09;1.45;;;1.00;;
57744;SDS011;58941;50.168;4.410;2023-05-07T09:27:35;1.05;;;0.93;;
57744;SDS011;58941;50.168;4.410;2023-05-07T09:30:04;1.27;;;0.93;;
57744;SDS011;58941;50.168;4.410;2023-05-07T09:32:34;1.20;;;1.10;;
57744;SDS011;58941;50.168;4.410;2023-05-07T09:35:00;1.30;;;1.20;;
57744;SDS011;58941;50.168;4.410;2023-05-07T09:37:25;1.52;;;1.00;;
57744;SDS011;58941;50.168;4.410;2023-05-07T09:39:51;1.13;;;0.98;;
57744;SDS011;58941;50.168;4.410;2023-05-07T09:42:22;1.30;;;0.90;;
57744;SDS011;58941;50.168;4.410;2023-05-07T09:44:48;1.15;;;0.82;;
57744;SDS011;58941;50.168;4.410;2023-05-07T09:47:15;0.90;;;0.90;;
57744;SDS011;58941;50.168;4.410;2023-05-07T09:49:43;1.25;;;1.10;;
57744;SDS011;58941;50.168;4.410;2023-05-07T09:52:13;1.00;;;0.90;;
57744;SDS011;58941;50.168;4.410;2023-05-07T09:54:39;1.65;;;1.02;;
57744;SDS011;58941;50.168;4.410;2023-05-07T09:57:05;1.70;;;0.93;;
57744;SDS011;58941;50.168;4.410;2023-05-07T09:59:32;1.20;;;1.10;;
57744;SDS011;58941;50.168;4.410;2023-05-07T10:01:58;1.00;;;0.90;;
57744;SDS011;58941;50.168;4.410;2023-05-07T10:04:27;0.90;;;0.90;;
57744;SDS011;58941;50.168;4.410;2023-05-07T10:06:53;2.03;;;1.15;;
57744;SDS011;58941;50.168;4.410;2023-05-07T10:09:19;1.00;;;0.90;;
57744;SDS011;58941;50.168;4.410;2023-05-07T10:11:44;1.55;;;0.93;;
57744;SDS011;58941;50.168;4.410;2023-05-07T10:14:11;1.20;;;1.10;;
57744;SDS011;58941;50.168;4.410;2023-05-07T10:16:36;1.65;;;1.10;;
57744;SDS011;58941;50.168;4.410;2023-05-07T10:19:02;0.80;;;0.80;;
57744;SDS011;58941;50.168;4.410;2023-05-07T10:21:28;1.05;;;0.95;;
57744;SDS011;58941;50.168;4.410;2023-05-07T10:23:59;1.35;;;0.85;;
57744;SDS011;58941;50.168;4.410;2023-05-07T10:26:25;0.90;;;0.90;;
57744;SDS011;58941;50.168;4.410;2023-05-07T10:28:59;1.00;;;0.90;;
57744;SDS011;58941;50.168;4.410;2023-05-07T10:31:47;1.73;;;1.00;;
57744;SDS011;58941;50.168;4.410;2023-05-07T10:34:16;1.85;;;0.95;;
57744;SDS011;58941;50.168;4.410;2023-05-07T10:36:43;0.88;;;0.85;;
57744;SDS011;58941;50.168;4.410;2023-05-07T10:39:09;0.70;;;0.70;;
57744;SDS011;58941;50.168;4.410;2023-05-07T10:41:34;0.93;;;0.85;;
57744;SDS011;58941;50.168;4.410;2023-05-07T10:44:00;1.38;;;0.90;;
57744;SDS011;58941;50.168;4.410;2023-05-07T10:46:27;1.10;;;1.00;;
57744;SDS011;58941;50.168;4.410;2023-05-07T10:51:33;1.07;;;0.90;;
57744;SDS011;58941;50.168;4.410;2023-05-07T10:56:37;1.05;;;0.93;;
57744;SDS011;58941;50.168;4.410;2023-05-07T10:59:36;0.90;;;0.90;;
57744;SDS011;58941;50.168;4.410;2023-05-07T11:01:57;1.10;;;0.95;;
57744;SDS011;58941;50.168;4.410;2023-05-07T11:04:23;0.77;;;0.77;;
57744;SDS011;58941;50.168;4.410;2023-05-07T11:15:33;0.90;;;0.90;;
57744;SDS011;58941;50.168;4.410;2023-05-07T11:17:59;1.35;;;1.05;;
57744;SDS011;58941;50.168;4.410;2023-05-07T11:20:44;0.80;;;0.80;;
57744;SDS011;58941;50.168;4.410;2023-05-07T11:25:58;0.85;;;0.82;;
57744;SDS011;58941;50.168;4.410;2023-05-07T11:28:24;0.82;;;0.80;;
57744;SDS011;58941;50.168;4.410;2023-05-07T11:30:49;1.02;;;0.90;;
57744;SDS011;58941;50.168;4.410;2023-05-07T11:33:17;0.90;;;0.90;;
57744;SDS011;58941;50.168;4.410;2023-05-07T11:35:42;1.00;;;0.90;;
57744;SDS011;58941;50.168;4.410;2023-05-07T11:38:08;0.90;;;0.90;;
57744;SDS011;58941;50.168;4.410;2023-05-07T11:40:33;0.98;;;0.90;;
57744;SDS011;58941;50.168;4.410;2023-05-07T11:42:59;1.58;;;1.08;;
57744;SDS011;58941;50.168;4.410;2023-05-07T11:45:35;1.05;;;0.95;;
57744;SDS011;58941;50.168;4.410;2023-05-07T11:48:02;1.25;;;0.95;;
57744;SDS011;58941;50.168;4.410;2023-05-07T11:50:27;1.45;;;0.90;;
57744;SDS011;58941;50.168;4.410;2023-05-07T11:52:52;0.90;;;0.90;;
57744;SDS011;58941;50.168;4.410;2023-05-07T11:55:18;0.98;;;0.98;;
57744;SDS011;58941;50.168;4.410;2023-05-07T11:57:44;0.77;;;0.77;;
57744;SDS011;58941;50.168;4.410;2023-05-07T12:00:10;1.60;;;1.10;;
57744;SDS011;58941;50.168;4.410;2023-05-07T12:02:36;0.80;;;0.80;;
57744;SDS011;58941;50.168;4.410;2023-05-07T12:05:01;0.80;;;0.80;;
57744;SDS011;58941;50.168;4.410;2023-05-07T12:07:27;1.50;;;0.90;;
57744;SDS011;58941;50.168;4.410;2023-05-07T12:09:53;1.02;;;0.88;;
57744;SDS011;58941;50.168;4.410;2023-05-07T12:12:18;0.80;;;0.80;;
57744;SDS011;58941;50.168;4.410;2023-05-07T12:14:44;0.95;;;0.80;;
57744;SDS011;58941;50.168;4.410;2023-05-07T12:17:10;0.95;;;0.88;;
57744;SDS011;58941;50.168;4.410;2023-05-07T12:19:39;0.93;;;0.90;;
57744;SDS011;58941;50.168;4.410;2023-05-07T12:22:05;1.42;;;1.00;;
57744;SDS011;58941;50.168;4.410;2023-05-07T12:24:48;1.00;;;1.00;;
57744;SDS011;58941;50.168;4.410;2023-05-07T12:29:39;0.70;;;0.70;;
57744;SDS011;58941;50.168;4.410;2023-05-07T12:32:06;1.52;;;0.98;;
57744;SDS011;58941;50.168;4.410;2023-05-07T12:34:32;0.93;;;0.82;;
57744;SDS011;58941;50.168;4.410;2023-05-07T12:36:57;0.85;;;0.75;;
57744;SDS011;58941;50.168;4.410;2023-05-07T12:39:27;1.08;;;0.82;;
57744;SDS011;58941;50.168;4.410;2023-05-07T12:41:56;0.80;;;0.80;;
57744;SDS011;58941;50.168;4.410;2023-05-07T12:44:23;0.93;;;0.80;;
57744;SDS011;58941;50.168;4.410;2023-05-07T12:46:50;0.60;;;0.60;;
57744;SDS011;58941;50.168;4.410;2023-05-07T12:49:16;0.70;;;0.70;;
57744;SDS011;58941;50.168;4.410;2023-05-07T12:51:43;0.82;;;0.70;;
57744;SDS011;58941;50.168;4.410;2023-05-07T12:54:09;1.10;;;0.98;;
57744;SDS011;58941;50.168;4.410;2023-05-07T12:56:39;0.60;;;0.60;;
57744;SDS011;58941;50.168;4.410;2023-05-07T12:59:05;1.52;;;0.90;;
57744;SDS011;58941;50.168;4.410;2023-05-07T13:01:31;0.77;;;0.77;;
57744;SDS011;58941;50.168;4.410;2023-05-07T13:04:02;0.88;;;0.82;;
57744;SDS011;58941;50.168;4.410;2023-05-07T13:06:29;0.70;;;0.60;;
57744;SDS011;58941;50.168;4.410;2023-05-07T13:08:55;1.27;;;0.70;;
57744;SDS011;58941;50.168;4.410;2023-05-07T13:11:20;1.00;;;0.90;;
57744;SDS011;58941;50.168;4.410;2023-05-07T13:13:46;0.82;;;0.70;;
57744;SDS011;58941;50.168;4.410;2023-05-07T13:16:11;0.80;;;0.80;;
57744;SDS011;58941;50.168;4.410;2023-05-07T13:18:38;1.13;;;1.00;;
57744;SDS011;58941;50.168;4.410;2023-05-07T13:21:03;1.38;;;1.00;;
57744;SDS011;58941;50.168;4.410;2023-05-07T13:23:29;1.10;;;1.00;;
57744;SDS011;58941;50.168;4.410;2023-05-07T13:25:55;1.27;;;0.77;;
57744;SDS011;58941;50.168;4.410;2023-05-07T13:28:21;2.03;;;0.98;;
57744;SDS011;58941;50.168;4.410;2023-05-07T13:30:47;1.13;;;1.00;;
57744;SDS011;58941;50.168;4.410;2023-05-07T13:33:13;1.58;;;1.10;;
57744;SDS011;58941;50.168;4.410;2023-05-07T13:35:38;1.00;;;0.95;;
57744;SDS011;58941;50.168;4.410;2023-05-07T13:38:04;1.10;;;1.00;;
57744;SDS011;58941;50.168;4.410;2023-05-07T13:40:30;1.40;;;0.95;;
57744;SDS011;58941;50.168;4.410;2023-05-07T13:42:58;0.90;;;0.90;;
57744;SDS011;58941;50.168;4.410;2023-05-07T13:45:25;1.40;;;1.30;;
57744;SDS011;58941;50.168;4.410;2023-05-07T13:47:52;1.48;;;1.10;;
57744;SDS011;58941;50.168;4.410;2023-05-07T13:50:17;1.10;;;1.00;;
57744;SDS011;58941;50.168;4.410;2023-05-07T13:52:43;1.20;;;1.13;;
57744;SDS011;58941;50.168;4.410;2023-05-07T13:55:19;1.25;;;1.10;;
57744;SDS011;58941;50.168;4.410;2023-05-07T13:57:45;1.55;;;1.35;;
57744;SDS011;58941;50.168;4.410;2023-05-07T14:00:11;1.48;;;1.08;;
57744;SDS011;58941;50.168;4.410;2023-05-07T14:02:36;1.20;;;1.10;;
57744;SDS011;58941;50.168;4.410;2023-05-07T14:05:02;1.83;;;1.30;;
57744;SDS011;58941;50.168;4.410;2023-05-07T14:07:27;1.60;;;1.38;;
57744;SDS011;58941;50.168;4.410;2023-05-07T14:09:54;1.42;;;1.33;;
57744;SDS011;58941;50.168;4.410;2023-05-07T14:12:19;1.42;;;1.33;;
57744;SDS011;58941;50.168;4.410;2023-05-07T14:14:45;1.45;;;1.35;;
57744;SDS011;58941;50.168;4.410;2023-05-07T14:17:12;1.30;;;1.20;;
57744;SDS011;58941;50.168;4.410;2023-05-07T14:19:37;1.30;;;1.20;;
57744;SDS011;58941;50.168;4.410;2023-05-07T14:22:03;1.50;;;1.40;;
57744;SDS011;58941;50.168;4.410;2023-05-07T14:24:28;1.40;;;1.30;;
57744;SDS011;58941;50.168;4.410;2023-05-07T14:26:55;1.38;;;1.27;;
57744;SDS011;58941;50.168;4.410;2023-05-07T14:29:21;1.73;;;1.40;;
57744;SDS011;58941;50.168;4.410;2023-05-07T14:31:47;1.52;;;1.42;;
57744;SDS011;58941;50.168;4.410;2023-05-07T14:34:12;1.42;;;1.30;;
57744;SDS011;58941;50.168;4.410;2023-05-07T14:36:38;1.50;;;1.40;;
57744;SDS011;58941;50.168;4.410;2023-05-07T14:39:03;1.60;;;1.50;;
57744;SDS011;58941;50.168;4.410;2023-05-07T14:41:29;1.63;;;1.40;;
57744;SDS011;58941;50.168;4.410;2023-05-07T14:43:54;1.52;;;1.42;;
57744;SDS011;58941;50.168;4.410;2023-05-07T14:46:20;1.50;;;1.40;;
57744;SDS011;58941;50.168;4.410;2023-05-07T14:48:45;1.73;;;1.23;;
57744;SDS011;58941;50.168;4.410;2023-05-07T14:51:11;1.58;;;1.23;;
57744;SDS011;58941;50.168;4.410;2023-05-07T14:53:37;1.40;;;1.30;;
57744;SDS011;58941;50.168;4.410;2023-05-07T14:56:03;1.33;;;1.23;;
57744;SDS011;58941;50.168;4.410;2023-05-07T14:58:29;1.67;;;1.48;;
57744;SDS011;58941;50.168;4.410;2023-05-07T15:00:54;1.35;;;1.25;;